Time;durP1;ratioP1;P1;durP2;ratioP2;P2;SDS_P1;SDS_P2;PMS_P1;PMS_P2;Temp;Humidity;BMP_temperature;BMP_pressure;BME280_temperature;BME280_humidity;BME280_pressure;Samples;Min_cycle;Max_cycle;Signal;HPM_P1;HPM_P2
2022/04/22 00:00:52;;;;;;;8.23;4.32;;;;;;;20.97;40.35;101151.59;5047614;28;20072;-42
2022/04/22 00:03:18;;;;;;;5.57;3.78;;;;;;;20.96;40.46;101149.94;5046335;28;20067;-41
2022/04/22 00:05:45;;;;;;;6.45;3.33;;;;;;;20.94;40.61;101155.50;5047972;28;20831;-41
2022/04/22 00:08:12;;;;;;;7.47;4.07;;;;;;;20.95;40.30;101153.63;5047284;28;20488;-41
2022/04/22 00:11:29;;;;;;;7.28;3.63;;;;;;;20.93;40.92;101152.94;5048461;28;20462;-41
2022/04/22 00:13:25;;;;;;;7.03;3.53;;;;;;;20.91;40.35;101146.91;5047393;28;20045;-41
2022/04/22 00:15:52;;;;;;;4.85;3.65;;;;;;;20.91;40.78;101157.69;5045950;28;20383;-41
2022/04/22 00:18:19;;;;;;;6.32;3.67;;;;;;;20.91;40.32;101157.69;5047980;28;20392;-41
2022/04/22 00:20:45;;;;;;;4.72;3.05;;;;;;;20.87;40.27;101149.06;5048454;28;20053;-40
2022/04/22 00:23:12;;;;;;;7.03;3.35;;;;;;;20.85;40.50;101159.16;5047976;28;20323;-40
2022/04/22 00:25:38;;;;;;;6.05;3.47;;;;;;;20.84;40.39;101152.09;5048170;28;20328;-43
2022/04/22 00:28:06;;;;;;;5.47;3.42;;;;;;;20.83;40.31;101150.41;5046135;28;20044;-42
2022/04/22 00:30:32;;;;;;;5.47;3.38;;;;;;;20.83;40.65;101144.19;5047998;28;20052;-42
2022/04/22 00:33:00;;;;;;;7.85;3.45;;;;;;;20.82;40.34;101147.88;5048225;28;20099;-41
2022/04/22 00:35:26;;;;;;;6.55;3.33;;;;;;;20.80;40.91;101153.44;5047222;28;20336;-41
2022/04/22 00:37:53;;;;;;;5.78;2.92;;;;;;;20.80;40.88;101152.59;5048444;28;20052;-42
2022/04/22 00:40:20;;;;;;;4.32;3.20;;;;;;;20.80;40.22;101155.28;5049601;28;20064;-42
2022/04/22 00:42:47;;;;;;;4.75;3.13;;;;;;;20.78;40.56;101150.03;5046035;28;20059;-41
2022/04/22 00:45:13;;;;;;;6.45;3.20;;;;;;;20.77;40.99;101140.28;5046865;28;20332;-41
2022/04/22 00:47:41;;;;;;;5.60;3.35;;;;;;;20.75;41.12;101142.31;5046911;28;20385;-42
2022/04/22 00:50:09;;;;;;;6.32;3.13;;;;;;;20.76;41.00;101143.16;5048440;28;20077;-41
2022/04/22 00:52:35;;;;;;;6.05;3.40;;;;;;;20.75;41.00;101130.69;5047517;28;20444;-42
2022/04/22 00:55:02;;;;;;;4.05;2.78;;;;;;;20.73;40.50;101132.69;5047005;28;20041;-41
2022/04/22 00:57:31;;;;;;;5.10;3.15;;;;;;;20.73;40.33;101128.16;5047661;28;20044;-41
2022/04/22 00:59:58;;;;;;;4.53;2.92;;;;;;;20.71;40.49;101130.19;5047043;28;20051;-41
2022/04/22 01:02:24;;;;;;;6.43;3.40;;;;;;;20.68;41.09;101120.56;5040839;28;20041;-41
2022/04/22 01:10:21;;;;;;;4.55;2.83;;;;;;;20.66;40.94;101106.44;5047694;28;20051;-41
2022/04/22 01:12:48;;;;;;;4.65;3.50;;;;;;;20.63;41.21;101109.44;5047252;28;20061;-41
2022/04/22 01:15:15;;;;;;;5.32;2.90;;;;;;;20.62;40.95;101104.22;5048338;28;20040;-41
2022/04/22 01:17:43;;;;;;;5.15;3.00;;;;;;;20.63;40.86;101104.06;5044838;28;20045;-41
2022/04/22 01:20:10;;;;;;;4.30;2.75;;;;;;;20.60;40.58;101107.06;5049880;28;20317;-41
2022/04/22 01:22:36;;;;;;;5.18;3.22;;;;;;;20.60;41.36;101101.69;5046333;28;20041;-41
2022/04/22 01:25:03;;;;;;;5.57;3.30;;;;;;;20.59;41.43;101104.56;5048760;28;20041;-41
2022/04/22 01:27:31;;;;;;;4.53;2.72;;;;;;;20.58;41.19;101098.34;5049109;28;20049;-41
2022/04/22 01:30:03;;;;;;;5.70;3.20;;;;;;;20.56;40.87;101102.19;5046355;28;20136;-41
2022/04/22 01:32:30;;;;;;;4.00;2.65;;;;;;;20.55;41.64;101104.03;5046727;28;20071;-41
2022/04/22 01:34:56;;;;;;;4.68;3.20;;;;;;;20.54;41.51;101113.09;5046030;28;20335;-42
2022/04/22 01:37:23;;;;;;;4.55;2.63;;;;;;;20.53;41.21;101111.44;5048133;28;20049;-42
2022/04/22 01:39:50;;;;;;;5.15;2.80;;;;;;;20.52;41.35;101101.66;5045053;28;20055;-41
2022/04/22 01:42:18;;;;;;;5.15;2.92;;;;;;;20.51;41.11;101109.91;5047058;28;20051;-41
2022/04/22 01:44:45;;;;;;;4.32;2.83;;;;;;;20.50;41.44;101106.34;5046437;28;20048;-41
2022/04/22 01:47:11;;;;;;;4.80;3.10;;;;;;;20.50;41.17;101102.81;5045087;28;20044;-42
2022/04/22 01:49:38;;;;;;;5.30;3.15;;;;;;;20.48;41.17;101107.50;5043641;28;20048;-41
2022/04/22 01:52:05;;;;;;;4.70;2.90;;;;;;;20.46;41.65;101107.66;5047140;28;20102;-41
2022/04/22 01:54:32;;;;;;;7.50;3.22;;;;;;;20.45;40.99;101101.44;5046670;28;20063;-41
2022/04/22 01:56:59;;;;;;;4.82;2.83;;;;;;;20.44;41.27;101101.63;5046348;28;20045;-41
2022/04/22 01:59:25;;;;;;;7.57;3.33;;;;;;;20.43;40.91;101097.25;5045819;28;20043;-41
2022/04/22 02:01:52;;;;;;;5.60;2.75;;;;;;;20.42;41.24;101103.59;5046106;28;20045;-41
2022/04/22 02:04:18;;;;;;;4.03;2.80;;;;;;;20.42;41.30;101100.91;5044767;28;20055;-41
2022/04/22 02:06:45;;;;;;;4.55;2.70;;;;;;;20.40;41.12;101095.72;5047094;28;20580;-41
2022/04/22 02:09:12;;;;;;;4.50;2.70;;;;;;;20.40;41.06;101098.41;5044826;28;20495;-41
2022/04/22 02:11:40;;;;;;;4.65;2.90;;;;;;;20.38;41.05;101095.03;5048816;28;20123;-41
2022/04/22 02:14:08;;;;;;;4.05;2.70;;;;;;;20.38;40.78;101094.16;5045702;28;20049;-42
2022/04/22 02:16:35;;;;;;;5.32;2.42;;;;;;;20.37;41.10;101087.94;5046124;28;20176;-41
2022/04/22 02:19:01;;;;;;;4.10;2.72;;;;;;;20.37;41.75;101087.09;5043144;28;20701;-41
2022/04/22 02:21:28;;;;;;;5.10;2.85;;;;;;;20.37;41.34;101087.94;5043852;28;20071;-41
2022/04/22 02:23:54;;;;;;;6.55;2.92;;;;;;;20.35;41.58;101086.44;5044641;28;20087;-41
2022/04/22 02:26:21;;;;;;;5.40;2.78;;;;;;;20.34;41.43;101079.34;5045203;28;20077;-41
2022/04/22 02:28:47;;;;;;;3.67;2.75;;;;;;;20.33;41.24;101081.19;5046826;28;20152;-41
2022/04/22 02:31:14;;;;;;;3.75;2.80;;;;;;;20.33;41.12;101083.06;5049980;28;20037;-41
2022/04/22 02:33:42;;;;;;;5.63;3.22;;;;;;;20.32;41.69;101082.22;5048792;28;20056;-41
2022/04/22 02:36:09;;;;;;;4.32;2.97;;;;;;;20.33;41.16;101080.38;5046709;28;20172;-41
2022/04/22 02:38:37;;;;;;;4.55;2.63;;;;;;;20.31;41.85;101085.09;5045647;28;20037;-41
2022/04/22 02:46:55;;;;;;;4.80;2.60;;;;;;;20.28;41.31;101085.41;4966558;28;20081;-41
2022/04/22 02:49:26;;;;;;;4.93;2.90;;;;;;;20.27;41.64;101081.88;4963591;28;20426;-41
2022/04/22 02:51:53;;;;;;;3.85;2.67;;;;;;;20.26;41.63;101077.50;5004287;28;20051;-42
2022/04/22 02:54:19;;;;;;;3.92;2.47;;;;;;;20.25;41.61;101069.56;5047349;28;20077;-41
2022/04/22 02:56:46;;;;;;;3.95;2.47;;;;;;;20.24;41.93;101074.13;5044650;28;20132;-42
2022/04/22 02:59:12;;;;;;;4.07;2.17;;;;;;;20.24;41.75;101066.03;5043584;28;20053;-41
2022/04/22 03:01:43;;;;;;;4.55;2.90;;;;;;;20.23;41.46;101068.91;5045330;28;20052;-41
2022/04/22 03:04:09;;;;;;;3.97;2.70;;;;;;;20.21;42.31;101063.66;5045355;28;20642;-40
2022/04/22 03:06:36;;;;;;;4.78;2.83;;;;;;;20.21;42.33;101069.06;5047616;28;20037;-42
2022/04/22 03:09:04;;;;;;;4.07;2.45;;;;;;;20.20;42.22;101065.53;5050344;28;20037;-41
2022/04/22 03:11:31;;;;;;;3.72;2.63;;;;;;;20.18;42.40;101061.28;5050634;28;20041;-41
2022/04/22 03:13:57;;;;;;;5.45;2.42;;;;;;;20.18;41.76;101062.16;5050874;28;20045;-41
2022/04/22 03:16:25;;;;;;;5.30;2.42;;;;;;;20.17;42.07;101067.69;5049547;28;20128;-41
2022/04/22 03:18:52;;;;;;;4.30;2.50;;;;;;;20.16;42.25;101069.53;5048072;28;20420;-41
2022/04/22 03:21:19;;;;;;;5.45;2.47;;;;;;;20.16;42.01;101072.22;5049023;28;20053;-40
2022/04/22 03:23:45;;;;;;;4.28;2.00;;;;;;;20.15;42.52;101069.72;5050739;28;20049;-41
2022/04/22 03:26:12;;;;;;;4.18;2.33;;;;;;;20.14;41.97;101068.00;5051830;28;20051;-41
2022/04/22 03:28:38;;;;;;;3.53;2.25;;;;;;;20.14;42.29;101068.00;5049330;28;20044;-41
2022/04/22 03:31:05;;;;;;;6.28;2.75;;;;;;;20.12;41.91;101061.97;5047891;28;20059;-41
2022/04/22 03:33:32;;;;;;;4.00;2.65;;;;;;;20.11;41.87;101062.97;5047439;28;20052;-41
2022/04/22 03:35:58;;;;;;;3.20;2.50;;;;;;;20.10;42.08;101059.44;5048533;28;20069;-41
2022/04/22 03:38:25;;;;;;;6.43;2.70;;;;;;;20.07;42.55;101058.91;5049125;28;20037;-41
2022/04/22 03:40:52;;;;;;;4.75;2.53;;;;;;;20.08;42.14;101060.59;5048276;28;20540;-41
2022/04/22 03:43:22;;;;;;;4.18;2.53;;;;;;;20.06;42.27;101055.38;5046682;28;20472;-41
2022/04/22 03:45:48;;;;;;;6.38;2.78;;;;;;;20.03;42.63;101053.00;5049155;28;20051;-40
2022/04/22 03:48:16;;;;;;;4.53;2.58;;;;;;;20.03;42.72;101058.41;5048113;28;20053;-41
2022/04/22 03:50:42;;;;;;;3.47;2.30;;;;;;;20.02;42.43;101056.72;5048469;28;20041;-41
2022/04/22 03:53:11;;;;;;;6.85;2.33;;;;;;;20.01;42.44;101054.16;5049056;28;20037;-41
2022/04/22 03:55:40;;;;;;;6.70;2.45;;;;;;;20.00;42.37;101055.19;5048763;28;20132;-41
2022/04/22 03:58:12;;;;;;;3.90;2.80;;;;;;;19.98;42.56;101052.66;5047256;28;20060;-42
2022/04/22 04:00:44;;;;;;;9.70;2.92;;;;;;;19.97;43.41;101054.47;5050304;28;20045;-41
2022/04/22 04:03:13;;;;;;;11.38;3.38;;;;;;;19.94;42.62;101054.00;5046496;28;20041;-40
2022/04/22 04:05:41;;;;;;;7.32;2.80;;;;;;;19.95;42.69;101050.28;5053666;28;20063;-39
2022/04/22 04:08:11;;;;;;;6.15;2.88;;;;;;;19.93;42.80;101058.50;5050965;28;20332;-40
2022/04/22 04:16:08;;;;;;;6.90;3.50;;;;;;;19.89;42.82;101061.69;5048663;28;20128;-40
2022/04/22 04:18:37;;;;;;;8.30;3.85;;;;;;;19.89;43.22;101050.91;5052272;28;20045;-40
2022/04/22 04:23:52;;;;;;;12.65;4.15;;;;;;;19.86;42.97;101060.16;5051016;28;20068;-40
2022/04/22 04:26:21;;;;;;;7.28;4.30;;;;;;;19.86;43.60;101059.28;5053187;28;20419;-40
2022/04/22 04:28:49;;;;;;;8.50;4.15;;;;;;;19.86;42.93;101059.28;5051294;28;20049;-40
2022/04/22 04:31:16;;;;;;;8.65;4.47;;;;;;;19.83;42.94;101055.09;5051027;28;20037;-40
2022/04/22 04:33:43;;;;;;;7.97;4.38;;;;;;;19.81;43.29;101056.25;5050278;28;20512;-41
2022/04/22 04:36:15;;;;;;;8.23;4.75;;;;;;;19.81;43.36;101050.88;5052776;28;20041;-40
2022/04/22 04:38:42;;;;;;;13.23;5.45;;;;;;;19.80;43.77;101054.56;5051537;28;20045;-40
2022/04/22 04:41:09;;;;;;;16.08;5.60;;;;;;;19.80;43.07;101044.66;5045133;28;20037;-40
2022/04/22 04:43:40;;;;;;;10.57;5.60;;;;;;;19.78;43.76;101049.38;5050339;28;20039;-40
2022/04/22 04:46:06;;;;;;;10.52;5.82;;;;;;;19.79;43.10;101058.28;5051751;28;20099;-41
2022/04/22 04:48:37;;;;;;;9.45;5.57;;;;;;;19.78;43.16;101059.25;5047420;28;20049;-41
2022/04/22 04:51:03;;;;;;;11.38;6.38;;;;;;;19.76;42.99;101056.75;5050101;28;20049;-41
2022/04/22 04:53:30;;;;;;;11.57;6.03;;;;;;;19.76;43.29;101055.91;5048742;28;20124;-41
2022/04/22 04:55:57;;;;;;;12.90;6.63;;;;;;;19.76;43.70;101055.91;5049741;28;20324;-40
2022/04/22 04:58:23;;;;;;;12.07;6.43;;;;;;;19.75;43.18;101054.22;5048871;28;20049;-40
2022/04/22 05:00:51;;;;;;;8.85;5.85;;;;;;;19.75;43.29;101049.69;5052639;28;20135;-40
2022/04/22 05:03:19;;;;;;;12.63;6.88;;;;;;;19.77;43.16;101050.34;5050822;28;20041;-40
2022/04/22 05:05:45;;;;;;;11.45;6.22;;;;;;;19.78;43.05;101054.75;5049051;28;20124;-41
2022/04/22 05:08:12;;;;;;;13.48;6.07;;;;;;;19.80;43.53;101054.56;5052393;28;20059;-40
2022/04/22 05:10:40;;;;;;;14.80;6.47;;;;;;;19.82;43.33;101048.03;5048292;28;20120;-39
2022/04/22 05:13:06;;;;;;;14.77;6.72;;;;;;;19.84;43.47;101055.94;5050860;28;20325;-40
2022/04/22 05:15:33;;;;;;;10.43;5.72;;;;;;;19.84;43.09;101058.63;5050527;28;20045;-40
2022/04/22 05:18:02;;;;;;;10.48;6.63;;;;;;;19.84;43.34;101055.94;5049006;28;20049;-40
2022/04/22 05:20:29;;;;;;;11.88;6.95;;;;;;;19.85;43.54;101058.47;5046440;28;20045;-40
2022/04/22 05:22:58;;;;;;;11.13;6.60;;;;;;;19.87;42.91;101066.38;5051385;28;20045;-41
2022/04/22 05:25:25;;;;;;;10.90;6.70;;;;;;;19.89;42.90;101064.38;5048813;28;20076;-41
2022/04/22 05:27:52;;;;;;;11.00;6.00;;;;;;;19.88;43.22;101055.47;5050573;28;20067;-41
2022/04/22 05:33:04;;;;;;;11.20;6.63;;;;;;;19.86;42.57;101065.56;5049222;28;20037;-42
2022/04/22 05:35:31;;;;;;;11.52;6.22;;;;;;;19.86;42.92;101060.16;5048521;28;20403;-40
2022/04/22 05:38:00;;;;;;;14.00;6.50;;;;;;;19.85;42.99;101063.00;5049603;28;20051;-40
2022/04/22 05:40:30;;;;;;;11.02;6.82;;;;;;;19.83;42.42;101063.16;5050046;28;20417;-40
2022/04/22 05:42:57;;;;;;;9.07;5.65;;;;;;;19.84;43.03;101058.63;5049286;28;20509;-40
2022/04/22 05:45:26;;;;;;;9.00;5.93;;;;;;;19.83;43.12;101065.03;5051278;28;20498;-40
2022/04/22 05:47:53;;;;;;;12.45;6.55;;;;;;;19.82;43.14;101066.88;5050044;28;20041;-40
2022/04/22 05:50:21;;;;;;;9.05;6.10;;;;;;;19.82;42.77;101063.31;5048648;28;20044;-40
2022/04/22 05:52:49;;;;;;;10.38;6.18;;;;;;;19.83;42.56;101063.16;5047237;28;20158;-40
2022/04/22 05:55:18;;;;;;;11.10;5.57;;;;;;;19.83;43.03;101057.78;5045859;28;20332;-40
2022/04/22 05:57:46;;;;;;;9.85;6.32;;;;;;;19.83;42.84;101054.25;5048035;28;20075;-41
2022/04/22 06:00:15;;;;;;;10.50;6.68;;;;;;;19.82;42.89;101058.81;5048602;28;20056;-41
2022/04/22 06:02:43;;;;;;;10.65;6.13;;;;;;;19.82;42.92;101066.88;5049525;28;20036;-41
2022/04/22 06:05:11;;;;;;;11.73;6.88;;;;;;;19.82;43.37;101066.88;5046463;28;20064;-40
2022/04/22 06:07:38;;;;;;;10.25;5.88;;;;;;;19.80;42.71;101063.50;5048453;28;20066;-41
2022/04/22 06:12:52;;;;;;;8.98;5.43;;;;;;;19.82;42.63;101063.31;5044967;28;20366;-40
2022/04/22 06:15:19;;;;;;;9.93;5.80;;;;;;;19.79;43.11;101056.44;5048653;28;20045;-40
2022/04/22 06:17:46;;;;;;;10.77;6.13;;;;;;;19.80;42.88;101059.97;5048925;28;20056;-41
2022/04/22 06:20:12;;;;;;;11.23;6.20;;;;;;;19.80;43.06;101054.56;5048227;28;20081;-41
2022/04/22 06:22:39;;;;;;;9.07;5.60;;;;;;;19.80;43.09;101055.41;5047301;28;20678;-43
2022/04/22 06:25:08;;;;;;;11.65;6.57;;;;;;;19.80;42.72;101055.41;5048893;28;20076;-41
2022/04/22 06:27:40;;;;;;;22.30;7.78;;;;;;;19.80;43.06;101054.56;5050663;28;20297;-41
2022/04/22 06:30:14;;;;;;;15.93;7.55;;;;;;;19.82;42.83;101053.44;5047668;28;20460;-42
2022/04/22 06:32:46;;;;;;;19.08;7.57;;;;;;;19.80;43.07;101049.19;5046543;28;20068;-41
2022/04/22 06:35:15;;;;;;;16.55;7.75;;;;;;;19.80;43.17;101041.97;5048386;28;20360;-41
2022/04/22 06:37:52;;;;;;;14.20;7.40;;;;;;;19.80;42.80;101043.81;5050994;28;20128;-41
2022/04/22 06:45:51;;;;;;;17.35;8.02;;;;;;;19.80;42.97;101049.19;5054139;28;20041;-40
2022/04/22 06:48:30;;;;;;;17.35;8.13;;;;;;;19.80;42.53;101047.34;5053659;28;20128;-41
2022/04/22 06:51:12;;;;;;;;;;;;;;;19.81;43.16;101034.75;5051405;28;20321;-40
2022/04/22 06:53:40;;;;;;;20.48;8.00;;;;;;;19.83;42.74;101035.44;5051516;28;19928;-41
2022/04/22 06:56:07;;;;;;;20.13;8.77;;;;;;;19.83;42.47;101038.13;5051469;28;20048;-41
2022/04/22 06:58:40;;;;;;;24.58;7.38;;;;;;;19.83;42.83;101043.50;5054732;28;20125;-40
2022/04/22 07:01:07;;;;;;;17.25;7.20;;;;;;;19.84;42.42;101039.81;5048120;28;20340;-41
2022/04/22 07:03:54;;;;;;;20.88;7.25;;;;;;;19.83;42.24;101038.13;5044328;28;20050;-41
2022/04/22 07:06:21;;;;;;;21.40;7.93;;;;;;;19.84;42.88;101042.50;5054071;28;20657;-40
2022/04/22 07:08:49;;;;;;;14.25;6.63;;;;;;;19.86;42.55;101040.47;5053619;28;20079;-41
2022/04/22 07:11:24;;;;;;;16.85;7.25;;;;;;;19.85;42.91;101028.88;5048956;28;20063;-41
2022/04/22 07:13:53;;;;;;;17.80;7.07;;;;;;;19.87;42.91;101031.41;5050106;28;20052;-40
2022/04/22 07:16:20;;;;;;;13.77;6.45;;;;;;;19.87;42.80;101028.72;5051192;28;20751;-41
2022/04/22 07:18:47;;;;;;;15.05;6.68;;;;;;;19.88;42.67;101025.03;5049914;28;20167;-41
2022/04/22 07:21:15;;;;;;;15.35;6.97;;;;;;;19.88;42.80;101036.63;5052131;28;20057;-41
2022/04/22 07:23:42;;;;;;;14.70;6.97;;;;;;;19.89;42.31;101027.53;5054639;28;20075;-41
2022/04/22 07:26:09;;;;;;;11.57;5.97;;;;;;;19.90;42.08;101023.00;5054130;28;20071;-41
2022/04/22 07:28:38;;;;;;;15.65;6.63;;;;;;;19.91;42.41;101025.56;5055933;28;20195;-42
2022/04/22 07:31:05;;;;;;;14.10;6.38;;;;;;;19.93;42.70;101017.31;5053180;28;20064;-41
2022/04/22 07:33:32;;;;;;;12.90;5.82;;;;;;;19.95;41.92;101028.75;5048517;28;20080;-41
2022/04/22 07:36:00;;;;;;;15.18;6.78;;;;;;;19.96;42.78;101022.38;5050486;28;20043;-42
2022/04/22 07:38:28;;;;;;;13.35;6.20;;;;;;;19.96;42.54;101033.97;5054952;28;20115;-41
2022/04/22 07:40:55;;;;;;;12.55;6.38;;;;;;;19.97;42.48;101022.19;5049574;28;20037;-41
2022/04/22 07:48:56;;;;;;;11.75;5.97;;;;;;;20.01;42.39;101024.56;5051855;28;20052;-41
2022/04/22 07:51:25;;;;;;;12.32;5.78;;;;;;;20.00;42.32;101021.03;5052493;28;20519;-41
2022/04/22 07:53:52;;;;;;;12.30;6.03;;;;;;;20.01;42.41;101016.50;5050137;28;20041;-42
2022/04/22 07:56:18;;;;;;;10.20;5.03;;;;;;;20.00;41.94;101010.28;5050003;28;20049;-41
2022/04/22 07:58:45;;;;;;;10.18;5.55;;;;;;;20.00;41.81;101010.28;5053559;28;20052;-41
2022/04/22 08:01:11;;;;;;;8.82;5.22;;;;;;;20.02;42.07;101004.72;5051327;28;20044;-42
2022/04/22 08:03:38;;;;;;;12.38;5.53;;;;;;;20.03;41.98;101009.97;5051894;28;20416;-41
2022/04/22 08:06:06;;;;;;;12.00;5.88;;;;;;;20.03;41.99;101007.28;5055879;28;20418;-41
2022/04/22 08:08:33;;;;;;;12.38;5.32;;;;;;;20.05;42.36;101012.47;5053438;28;20340;-41
2022/04/22 08:10:59;;;;;;;10.45;5.65;;;;;;;20.05;42.25;101009.78;5048844;28;20127;-41
2022/04/22 08:13:26;;;;;;;8.82;5.50;;;;;;;20.06;42.45;101011.47;5051817;28;20041;-41
2022/04/22 08:15:53;;;;;;;9.88;5.65;;;;;;;20.06;42.35;101006.09;5051375;28;20057;-41
2022/04/22 08:18:19;;;;;;;12.30;4.95;;;;;;;20.06;41.73;101017.72;5051591;28;20582;-42
2022/04/22 08:20:46;;;;;;;13.23;5.47;;;;;;;20.07;41.96;100997.88;5052973;28;20049;-42
2022/04/22 08:23:12;;;;;;;12.57;5.35;;;;;;;20.07;41.84;101002.41;5048319;28;20037;-44
2022/04/22 08:25:41;;;;;;;9.63;4.97;;;;;;;20.08;41.77;101004.94;5050454;28;20607;-42
2022/04/22 08:28:07;;;;;;;11.75;5.22;;;;;;;20.10;42.30;101002.06;5035050;28;20136;-42
2022/04/22 08:30:35;;;;;;;8.13;5.00;;;;;;;20.10;42.25;100994.84;5052171;28;20080;-43
2022/04/22 08:33:02;;;;;;;8.52;4.50;;;;;;;20.10;42.01;100989.47;5052490;28;20052;-42
2022/04/22 08:35:29;;;;;;;7.65;4.60;;;;;;;20.12;42.44;100986.59;5052882;28;20041;-41
2022/04/22 08:37:58;;;;;;;10.10;5.05;;;;;;;20.12;41.63;100986.59;5052205;28;20415;-40
2022/04/22 08:40:26;;;;;;;9.75;4.57;;;;;;;20.13;41.75;100991.81;5047953;28;20041;-41
2022/04/22 08:42:53;;;;;;;7.95;4.65;;;;;;;20.14;41.60;100982.75;5052235;28;20047;-41
2022/04/22 08:45:25;;;;;;;7.65;4.47;;;;;;;20.17;41.76;100981.56;5054215;28;20128;-40
2022/04/22 08:50:41;;;;;;;7.18;4.00;;;;;;;20.19;41.97;100983.09;5051310;28;20659;-40
2022/04/22 08:53:11;;;;;;;8.70;4.50;;;;;;;20.20;41.67;100976.69;5053108;28;20091;-41
2022/04/22 08:55:39;;;;;;;6.78;4.35;;;;;;;20.21;41.72;100975.69;5053659;28;20135;-42
2022/04/22 08:58:06;;;;;;;6.50;4.35;;;;;;;20.25;41.48;100972.66;5052231;28;20055;-42
2022/04/22 09:00:34;;;;;;;7.72;4.00;;;;;;;20.27;41.56;100981.44;5051025;28;20036;-42
2022/04/22 09:03:01;;;;;;;10.27;4.40;;;;;;;20.28;41.57;100972.34;5047664;28;20255;-41
2022/04/22 09:05:29;;;;;;;7.90;4.35;;;;;;;20.30;42.03;100975.69;5033959;28;20098;-42
2022/04/22 09:07:57;;;;;;;9.50;4.22;;;;;;;20.32;41.81;100968.31;5050529;28;20336;-42
2022/04/22 09:10:24;;;;;;;7.20;3.85;;;;;;;20.34;41.89;100975.22;5049631;28;20072;-42
2022/04/22 09:12:55;;;;;;;10.43;4.78;;;;;;;20.36;41.76;100964.28;5051496;28;20448;-42
2022/04/22 09:15:23;;;;;;;8.15;4.55;;;;;;;20.37;41.91;100958.72;5053208;28;20124;-41
2022/04/22 09:17:57;;;;;;;8.55;4.43;;;;;;;20.38;41.94;100968.50;5049536;28;20127;-41
2022/04/22 09:20:32;;;;;;;11.40;4.20;;;;;;;20.40;42.38;100958.41;5053188;28;20135;-41
2022/04/22 09:22:59;;;;;;;6.30;4.00;;;;;;;20.43;41.84;100957.25;5049420;28;20103;-42
2022/04/22 09:25:25;;;;;;;8.57;4.28;;;;;;;20.44;42.70;100954.38;5053382;28;20128;-42
2022/04/22 09:27:52;;;;;;;7.53;4.28;;;;;;;20.46;42.42;100941.59;5051855;28;20491;-42
2022/04/22 09:30:30;;;;;;;7.38;3.92;;;;;;;20.49;41.89;100948.50;5051551;28;20128;-41
2022/04/22 09:32:57;;;;;;;8.50;3.60;;;;;;;20.51;42.48;100935.72;5047939;28;20037;-43
2022/04/22 09:35:26;;;;;;;8.85;4.10;;;;;;;20.53;41.86;100941.78;5051613;28;20320;-42
2022/04/22 09:43:34;;;;;;;6.40;3.58;;;;;;;20.64;42.30;100936.06;5050724;28;20442;-42
2022/04/22 09:46:04;;;;;;;6.30;3.58;;;;;;;20.67;42.26;100932.19;5051483;28;20055;-42
2022/04/22 09:48:42;;;;;;;6.80;3.65;;;;;;;20.68;42.22;100933.88;5050712;28;20040;-42
2022/04/22 09:51:20;;;;;;;6.72;3.50;;;;;;;20.69;42.07;100928.31;5052872;28;20135;-41
2022/04/22 09:54:02;;;;;;;5.30;2.97;;;;;;;20.74;41.74;100922.41;5048580;28;20045;-43
2022/04/22 09:56:29;;;;;;;5.30;3.35;;;;;;;20.77;41.84;100921.25;5051262;28;20103;-42
2022/04/22 09:58:56;;;;;;;7.50;3.58;;;;;;;20.79;41.57;100921.94;5049376;28;20094;-46
2022/04/22 10:01:24;;;;;;;6.38;3.65;;;;;;;20.81;42.01;100919.88;5050032;28;20041;-45
2022/04/22 10:04:12;;;;;;;6.05;3.72;;;;;;;20.84;41.39;100912.31;5042828;28;20567;-43
2022/04/22 10:06:38;;;;;;;7.38;3.42;;;;;;;20.86;41.79;100902.19;5047404;28;20045;-44
2022/04/22 10:09:08;;;;;;;5.80;3.08;;;;;;;20.90;41.48;100908.94;5053221;28;20061;-43
2022/04/22 10:11:34;;;;;;;5.03;3.10;;;;;;;20.93;41.07;100902.34;5051553;28;20049;-43
2022/04/22 10:14:05;;;;;;;8.30;3.10;;;;;;;20.96;41.29;100902.03;5051541;28;20120;-44
2022/04/22 10:16:32;;;;;;;6.07;3.42;;;;;;;21.00;41.25;100903.38;5049027;28;20737;-46
2022/04/22 10:18:59;;;;;;;7.07;3.10;;;;;;;21.03;41.65;100903.03;5049788;28;20045;-44
2022/04/22 10:21:26;;;;;;;7.07;3.30;;;;;;;21.07;41.36;100890.06;5049181;28;20037;-43
2022/04/22 10:23:54;;;;;;;5.10;3.00;;;;;;;21.09;40.81;100888.00;5052522;28;20080;-43
2022/04/22 10:26:26;;;;;;;4.28;2.55;;;;;;;21.11;41.17;100886.84;5051909;28;20124;-43
2022/04/22 10:28:53;;;;;;;4.47;2.80;;;;;;;21.12;41.14;100890.38;5048674;28;20052;-43
2022/04/22 10:31:22;;;;;;;5.53;2.67;;;;;;;21.12;40.81;100885.81;5049595;28;20056;-45
2022/04/22 10:33:49;;;;;;;6.32;3.17;;;;;;;21.13;41.30;100892.88;5048537;28;20072;-44
2022/04/22 10:36:22;;;;;;;6.05;3.10;;;;;;;21.14;41.02;100888.31;5046997;28;20053;-45
2022/04/22 10:38:49;;;;;;;5.50;2.85;;;;;;;21.14;40.79;100883.78;5052739;28;20053;-46
2022/04/22 10:41:18;;;;;;;4.18;2.80;;;;;;;21.14;41.14;100891.84;5051962;28;20108;-45
2022/04/22 10:49:38;;;;;;;4.93;2.88;;;;;;;21.15;40.77;100884.63;5049030;28;20043;-43
2022/04/22 10:52:13;;;;;;;6.45;2.72;;;;;;;21.15;40.41;100887.34;5050121;28;20387;-46
2022/04/22 10:54:51;;;;;;;6.28;3.05;;;;;;;21.15;40.95;100879.25;5050827;28;20123;-43
2022/04/22 10:57:23;;;;;;;4.32;2.80;;;;;;;21.14;40.44;100878.38;5050211;28;20068;-42
2022/04/22 11:00:29;;;;;;;6.80;2.88;;;;;;;21.14;40.96;100883.78;5049159;28;20490;-42
2022/04/22 11:03:04;;;;;;;5.65;2.80;;;;;;;21.14;40.32;100878.38;5047479;28;20044;-42
2022/04/22 11:05:30;;;;;;;4.93;2.92;;;;;;;21.14;40.31;100878.38;5048763;28;20056;-42
2022/04/22 11:07:57;;;;;;;4.22;2.40;;;;;;;21.14;40.97;100872.97;5050658;28;20080;-41
2022/04/22 11:10:48;;;;;;;4.55;2.25;;;;;;;21.15;40.92;100868.47;5048651;28;20503;-45
2022/04/22 11:13:28;;;;;;;4.47;2.53;;;;;;;21.16;40.48;100867.44;5047362;28;20076;-43
2022/04/22 11:16:13;;;;;;;6.40;3.25;;;;;;;21.15;40.31;100863.91;5050674;28;20503;-42
2022/04/22 11:18:43;;;;;;;6.43;2.70;;;;;;;21.17;40.93;100855.63;5050578;28;20044;-42
2022/04/22 11:21:19;;;;;;;5.85;2.78;;;;;;;21.17;40.97;100845.69;5049526;28;20427;-44
2022/04/22 11:23:51;;;;;;;5.00;2.40;;;;;;;21.19;40.62;100854.47;5050068;28;20039;-45
2022/04/22 11:26:18;;;;;;;3.63;2.38;;;;;;;21.20;40.61;100848.03;5052006;28;20041;-46
2022/04/22 11:28:45;;;;;;;4.97;2.30;;;;;;;21.24;41.05;100840.44;5053268;28;20080;-43
2022/04/22 11:31:14;;;;;;;4.22;2.50;;;;;;;21.25;40.34;100841.28;5053674;28;20049;-43
2022/04/22 11:33:50;;;;;;;3.42;2.22;;;;;;;21.27;40.38;100834.72;5052622;28;20041;-44
2022/04/22 11:36:17;;;;;;;4.03;2.47;;;;;;;21.27;40.69;100840.13;5051400;28;20492;-44
2022/04/22 11:38:54;;;;;;;4.97;2.90;;;;;;;21.30;40.57;100833.50;5053023;28;20051;-43
2022/04/22 11:41:22;;;;;;;4.32;2.40;;;;;;;21.32;40.23;100834.19;5054647;28;20047;-46
2022/04/22 11:43:49;;;;;;;4.82;2.70;;;;;;;21.34;40.41;100843.78;5052835;28;20095;-43
2022/04/22 11:46:17;;;;;;;3.65;2.20;;;;;;;21.36;40.53;100828.31;5051281;28;20072;-43
2022/04/22 11:48:46;;;;;;;4.13;2.53;;;;;;;21.38;40.50;100836.19;5051006;28;20120;-42
2022/04/22 11:51:20;;;;;;;4.47;2.33;;;;;;;21.40;40.23;100828.78;5051193;28;20120;-41
2022/04/22 11:53:52;;;;;;;3.80;2.38;;;;;;;21.41;40.47;100827.75;5052376;28;20095;-49
2022/04/22 11:56:23;;;;;;;3.45;2.50;;;;;;;21.44;40.30;100830.13;5051622;28;20491;-46
2022/04/22 11:58:57;;;;;;;3.50;2.17;;;;;;;21.45;40.30;100826.41;5053401;28;20041;-41
2022/04/22 12:08:00;;;;;;;2.85;2.10;;;;;;;21.49;40.43;100822.31;5051622;28;20123;-48
2022/04/22 12:09:50;;;;;;;3.45;2.13;;;;;;;21.51;40.28;100819.44;5051239;28;20462;-43
2022/04/22 12:12:17;;;;;;;4.25;2.35;;;;;;;21.52;40.03;100811.19;5054520;28;20323;-43
2022/04/22 12:14:44;;;;;;;4.50;1.83;;;;;;;;;;5051081;28;20045;-42
2022/04/22 12:17:10;;;;;;;3.30;1.98;;;;;;;21.56;40.46;100808.97;5049975;28;20041;-41
2022/04/22 12:19:37;;;;;;;8.13;2.03;;;;;;;21.55;40.28;100805.44;5049328;28;20215;-44
2022/04/22 12:22:06;;;;;;;3.22;1.95;;;;;;;21.58;40.46;100794.28;5050915;28;20099;-45
2022/04/22 12:24:32;;;;;;;3.67;2.22;;;;;;;21.60;40.86;100810.31;5054134;28;20124;-44
2022/04/22 12:27:01;;;;;;;5.03;2.00;;;;;;;21.60;40.78;100792.25;5045059;28;20049;-47